sensor_id;sensor_type;location;lat;lon;timestamp;P1;durP1;ratioP1;P2;durP2;ratioP2
19004;SDS011;9635;52.078;8.648;2023-07-02T00:00:16;14.13;;;9.00;;
19004;SDS011;9635;52.078;8.648;2023-07-02T00:05:21;16.08;;;9.15;;
19004;SDS011;9635;52.078;8.648;2023-07-02T00:10:24;14.68;;;9.07;;
19004;SDS011;9635;52.078;8.648;2023-07-02T00:15:28;12.98;;;9.45;;
19004;SDS011;9635;52.078;8.648;2023-07-02T00:20:31;14.18;;;8.57;;
19004;SDS011;9635;52.078;8.648;2023-07-02T00:25:36;17.98;;;10.48;;
19004;SDS011;9635;52.078;8.648;2023-07-02T00:30:41;18.65;;;10.52;;
19004;SDS011;9635;52.078;8.648;2023-07-02T00:35:46;19.63;;;13.27;;
19004;SDS011;9635;52.078;8.648;2023-07-02T00:40:48;22.30;;;13.00;;
19004;SDS011;9635;52.078;8.648;2023-07-02T00:45:53;18.65;;;13.70;;
19004;SDS011;9635;52.078;8.648;2023-07-02T00:50:56;19.33;;;13.90;;
19004;SDS011;9635;52.078;8.648;2023-07-02T00:55:59;20.15;;;14.20;;
19004;SDS011;9635;52.078;8.648;2023-07-02T01:01:03;21.10;;;14.18;;
19004;SDS011;9635;52.078;8.648;2023-07-02T01:06:06;23.98;;;14.00;;
19004;SDS011;9635;52.078;8.648;2023-07-02T01:11:09;14.02;;;11.50;;
19004;SDS011;9635;52.078;8.648;2023-07-02T01:16:13;17.70;;;12.63;;
19004;SDS011;9635;52.078;8.648;2023-07-02T01:21:18;19.67;;;12.15;;
19004;SDS011;9635;52.078;8.648;2023-07-02T01:26:21;17.85;;;11.43;;
19004;SDS011;9635;52.078;8.648;2023-07-02T01:31:24;15.10;;;11.45;;
19004;SDS011;9635;52.078;8.648;2023-07-02T01:36:29;18.30;;;12.30;;
19004;SDS011;9635;52.078;8.648;2023-07-02T01:41:33;16.25;;;12.38;;
19004;SDS011;9635;52.078;8.648;2023-07-02T01:46:44;14.77;;;9.55;;
19004;SDS011;9635;52.078;8.648;2023-07-02T01:51:51;14.18;;;9.88;;
19004;SDS011;9635;52.078;8.648;2023-07-02T01:56:55;11.80;;;10.30;;
19004;SDS011;9635;52.078;8.648;2023-07-02T02:01:58;11.95;;;9.88;;
19004;SDS011;9635;52.078;8.648;2023-07-02T02:07:02;20.65;;;11.68;;
19004;SDS011;9635;52.078;8.648;2023-07-02T02:12:07;18.90;;;12.60;;
19004;SDS011;9635;52.078;8.648;2023-07-02T02:17:10;15.43;;;11.85;;
19004;SDS011;9635;52.078;8.648;2023-07-02T02:22:14;17.83;;;13.13;;
19004;SDS011;9635;52.078;8.648;2023-07-02T02:27:17;18.67;;;13.35;;
19004;SDS011;9635;52.078;8.648;2023-07-02T02:32:20;15.55;;;12.90;;
19004;SDS011;9635;52.078;8.648;2023-07-02T02:37:25;20.67;;;13.50;;
19004;SDS011;9635;52.078;8.648;2023-07-02T02:42:30;18.77;;;13.98;;
19004;SDS011;9635;52.078;8.648;2023-07-02T02:47:33;21.63;;;16.00;;
19004;SDS011;9635;52.078;8.648;2023-07-02T02:52:37;21.35;;;16.45;;
19004;SDS011;9635;52.078;8.648;2023-07-02T02:57:40;22.95;;;15.15;;
19004;SDS011;9635;52.078;8.648;2023-07-02T03:02:44;29.60;;;17.85;;
19004;SDS011;9635;52.078;8.648;2023-07-02T03:07:49;27.48;;;19.35;;
19004;SDS011;9635;52.078;8.648;2023-07-02T03:12:52;28.42;;;19.70;;
19004;SDS011;9635;52.078;8.648;2023-07-02T03:17:55;24.23;;;17.88;;
19004;SDS011;9635;52.078;8.648;2023-07-02T03:23:00;29.63;;;17.15;;
19004;SDS011;9635;52.078;8.648;2023-07-02T03:28:03;26.25;;;19.65;;
19004;SDS011;9635;52.078;8.648;2023-07-02T03:33:07;27.20;;;18.15;;
19004;SDS011;9635;52.078;8.648;2023-07-02T03:38:12;33.28;;;21.50;;
19004;SDS011;9635;52.078;8.648;2023-07-02T03:43:16;31.58;;;21.70;;
19004;SDS011;9635;52.078;8.648;2023-07-02T03:48:19;33.60;;;24.05;;
19004;SDS011;9635;52.078;8.648;2023-07-02T03:53:23;27.65;;;18.33;;
19004;SDS011;9635;52.078;8.648;2023-07-02T03:58:26;38.40;;;24.15;;
19004;SDS011;9635;52.078;8.648;2023-07-02T04:03:29;42.95;;;28.10;;
19004;SDS011;9635;52.078;8.648;2023-07-02T04:08:33;34.08;;;24.38;;
19004;SDS011;9635;52.078;8.648;2023-07-02T04:13:36;29.33;;;21.65;;
19004;SDS011;9635;52.078;8.648;2023-07-02T04:18:39;41.85;;;26.88;;
19004;SDS011;9635;52.078;8.648;2023-07-02T04:23:44;30.75;;;21.00;;
19004;SDS011;9635;52.078;8.648;2023-07-02T04:28:47;34.58;;;17.48;;
19004;SDS011;9635;52.078;8.648;2023-07-02T04:33:50;25.48;;;13.60;;
19004;SDS011;9635;52.078;8.648;2023-07-02T04:38:54;19.30;;;12.10;;
19004;SDS011;9635;52.078;8.648;2023-07-02T04:43:57;19.65;;;10.90;;
19004;SDS011;9635;52.078;8.648;2023-07-02T04:49:00;19.25;;;8.70;;
19004;SDS011;9635;52.078;8.648;2023-07-02T04:54:04;15.77;;;9.38;;
19004;SDS011;9635;52.078;8.648;2023-07-02T04:59:07;18.90;;;10.25;;
19004;SDS011;9635;52.078;8.648;2023-07-02T05:04:10;18.95;;;10.43;;
19004;SDS011;9635;52.078;8.648;2023-07-02T05:09:15;15.05;;;8.40;;
19004;SDS011;9635;52.078;8.648;2023-07-02T05:14:17;22.85;;;9.38;;
19004;SDS011;9635;52.078;8.648;2023-07-02T05:19:20;22.85;;;10.02;;
19004;SDS011;9635;52.078;8.648;2023-07-02T05:24:25;18.88;;;8.80;;
19004;SDS011;9635;52.078;8.648;2023-07-02T05:29:27;15.35;;;8.45;;
19004;SDS011;9635;52.078;8.648;2023-07-02T05:34:30;15.30;;;8.40;;
19004;SDS011;9635;52.078;8.648;2023-07-02T05:39:35;21.38;;;8.43;;
19004;SDS011;9635;52.078;8.648;2023-07-02T05:44:37;22.67;;;8.48;;
19004;SDS011;9635;52.078;8.648;2023-07-02T05:49:40;15.13;;;6.97;;
19004;SDS011;9635;52.078;8.648;2023-07-02T05:54:45;17.58;;;7.25;;
19004;SDS011;9635;52.078;8.648;2023-07-02T05:59:48;26.33;;;8.25;;
19004;SDS011;9635;52.078;8.648;2023-07-02T06:04:51;13.85;;;6.40;;
19004;SDS011;9635;52.078;8.648;2023-07-02T06:09:55;18.60;;;7.35;;
19004;SDS011;9635;52.078;8.648;2023-07-02T06:14:58;26.60;;;8.27;;
19004;SDS011;9635;52.078;8.648;2023-07-02T06:20:02;21.38;;;7.82;;
19004;SDS011;9635;52.078;8.648;2023-07-02T06:25:07;26.55;;;9.57;;
19004;SDS011;9635;52.078;8.648;2023-07-02T06:30:11;18.17;;;5.85;;
19004;SDS011;9635;52.078;8.648;2023-07-02T06:35:14;23.15;;;9.02;;
19004;SDS011;9635;52.078;8.648;2023-07-02T06:40:19;20.83;;;7.28;;
19004;SDS011;9635;52.078;8.648;2023-07-02T06:45:23;15.93;;;6.22;;
19004;SDS011;9635;52.078;8.648;2023-07-02T06:50:26;18.45;;;8.73;;
19004;SDS011;9635;52.078;8.648;2023-07-02T06:55:31;26.65;;;9.68;;
19004;SDS011;9635;52.078;8.648;2023-07-02T07:00:34;17.55;;;7.72;;
19004;SDS011;9635;52.078;8.648;2023-07-02T07:05:37;19.27;;;7.97;;
19004;SDS011;9635;52.078;8.648;2023-07-02T07:10:42;17.48;;;6.88;;
19004;SDS011;9635;52.078;8.648;2023-07-02T07:15:47;15.48;;;6.88;;
19004;SDS011;9635;52.078;8.648;2023-07-02T07:20:49;14.50;;;6.22;;
19004;SDS011;9635;52.078;8.648;2023-07-02T07:25:55;14.43;;;5.63;;
19004;SDS011;9635;52.078;8.648;2023-07-02T07:30:58;18.02;;;6.85;;
19004;SDS011;9635;52.078;8.648;2023-07-02T07:36:01;15.57;;;6.68;;
19004;SDS011;9635;52.078;8.648;2023-07-02T07:41:05;18.80;;;7.60;;
19004;SDS011;9635;52.078;8.648;2023-07-02T07:46:08;18.48;;;8.25;;
19004;SDS011;9635;52.078;8.648;2023-07-02T07:51:11;23.67;;;7.38;;
19004;SDS011;9635;52.078;8.648;2023-07-02T07:56:15;19.77;;;7.93;;
19004;SDS011;9635;52.078;8.648;2023-07-02T08:01:18;15.90;;;4.68;;
19004;SDS011;9635;52.078;8.648;2023-07-02T08:06:21;19.98;;;7.43;;
19004;SDS011;9635;52.078;8.648;2023-07-02T08:11:26;20.13;;;6.75;;
19004;SDS011;9635;52.078;8.648;2023-07-02T08:16:29;15.80;;;6.88;;
19004;SDS011;9635;52.078;8.648;2023-07-02T08:21:32;17.73;;;7.25;;
19004;SDS011;9635;52.078;8.648;2023-07-02T08:26:36;17.95;;;7.90;;
19004;SDS011;9635;52.078;8.648;2023-07-02T08:31:39;14.82;;;6.32;;
19004;SDS011;9635;52.078;8.648;2023-07-02T08:36:42;21.92;;;7.60;;
19004;SDS011;9635;52.078;8.648;2023-07-02T08:41:47;16.48;;;6.78;;
19004;SDS011;9635;52.078;8.648;2023-07-02T08:46:50;16.30;;;7.20;;
19004;SDS011;9635;52.078;8.648;2023-07-02T08:51:57;20.98;;;5.65;;
19004;SDS011;9635;52.078;8.648;2023-07-02T08:57:01;16.13;;;7.18;;
19004;SDS011;9635;52.078;8.648;2023-07-02T09:02:06;16.77;;;7.30;;
19004;SDS011;9635;52.078;8.648;2023-07-02T09:07:10;18.58;;;7.25;;
19004;SDS011;9635;52.078;8.648;2023-07-02T09:12:24;13.63;;;6.57;;
19004;SDS011;9635;52.078;8.648;2023-07-02T09:17:28;13.13;;;4.97;;
19004;SDS011;9635;52.078;8.648;2023-07-02T09:22:32;19.42;;;6.50;;
19004;SDS011;9635;52.078;8.648;2023-07-02T09:27:37;13.68;;;5.03;;
19004;SDS011;9635;52.078;8.648;2023-07-02T09:32:41;18.65;;;5.90;;
19004;SDS011;9635;52.078;8.648;2023-07-02T09:37:45;11.05;;;4.57;;
19004;SDS011;9635;52.078;8.648;2023-07-02T09:42:52;18.33;;;5.40;;
19004;SDS011;9635;52.078;8.648;2023-07-02T09:47:56;16.20;;;5.65;;
19004;SDS011;9635;52.078;8.648;2023-07-02T09:53:01;11.65;;;5.57;;
19004;SDS011;9635;52.078;8.648;2023-07-02T09:58:05;14.55;;;5.65;;
19004;SDS011;9635;52.078;8.648;2023-07-02T10:03:08;11.65;;;6.63;;
19004;SDS011;9635;52.078;8.648;2023-07-02T10:08:11;18.67;;;7.35;;
19004;SDS011;9635;52.078;8.648;2023-07-02T10:13:25;8.05;;;4.90;;
19004;SDS011;9635;52.078;8.648;2023-07-02T10:18:29;17.33;;;6.70;;
19004;SDS011;9635;52.078;8.648;2023-07-02T10:23:32;17.13;;;6.32;;
19004;SDS011;9635;52.078;8.648;2023-07-02T10:28:38;10.88;;;5.20;;
19004;SDS011;9635;52.078;8.648;2023-07-02T10:33:42;12.23;;;6.03;;
19004;SDS011;9635;52.078;8.648;2023-07-02T10:38:46;12.15;;;5.65;;
19004;SDS011;9635;52.078;8.648;2023-07-02T10:43:50;11.25;;;5.82;;
19004;SDS011;9635;52.078;8.648;2023-07-02T10:48:53;12.07;;;6.18;;
19004;SDS011;9635;52.078;8.648;2023-07-02T10:53:57;10.35;;;5.57;;
19004;SDS011;9635;52.078;8.648;2023-07-02T10:59:02;13.85;;;4.80;;
19004;SDS011;9635;52.078;8.648;2023-07-02T11:04:05;12.07;;;6.10;;
19004;SDS011;9635;52.078;8.648;2023-07-02T11:09:15;14.82;;;5.80;;
19004;SDS011;9635;52.078;8.648;2023-07-02T11:14:30;10.88;;;5.63;;
19004;SDS011;9635;52.078;8.648;2023-07-02T11:19:34;13.40;;;6.25;;
19004;SDS011;9635;52.078;8.648;2023-07-02T11:24:38;13.57;;;6.00;;
19004;SDS011;9635;52.078;8.648;2023-07-02T11:29:43;12.50;;;5.85;;
19004;SDS011;9635;52.078;8.648;2023-07-02T11:34:52;12.38;;;5.43;;
19004;SDS011;9635;52.078;8.648;2023-07-02T11:39:56;10.38;;;5.00;;
19004;SDS011;9635;52.078;8.648;2023-07-02T11:45:00;17.55;;;6.38;;
19004;SDS011;9635;52.078;8.648;2023-07-02T11:50:03;16.88;;;6.75;;
19004;SDS011;9635;52.078;8.648;2023-07-02T11:55:25;9.35;;;5.00;;
19004;SDS011;9635;52.078;8.648;2023-07-02T12:00:29;12.70;;;6.10;;
19004;SDS011;9635;52.078;8.648;2023-07-02T12:05:32;10.27;;;4.18;;
19004;SDS011;9635;52.078;8.648;2023-07-02T12:10:35;15.95;;;5.70;;
19004;SDS011;9635;52.078;8.648;2023-07-02T12:15:40;15.68;;;6.30;;
19004;SDS011;9635;52.078;8.648;2023-07-02T12:20:43;13.85;;;5.55;;
19004;SDS011;9635;52.078;8.648;2023-07-02T12:25:46;16.38;;;5.55;;
19004;SDS011;9635;52.078;8.648;2023-07-02T12:30:51;11.70;;;6.53;;
19004;SDS011;9635;52.078;8.648;2023-07-02T12:35:54;14.05;;;5.55;;
19004;SDS011;9635;52.078;8.648;2023-07-02T12:40:57;10.50;;;5.60;;
19004;SDS011;9635;52.078;8.648;2023-07-02T12:46:01;8.82;;;5.20;;
19004;SDS011;9635;52.078;8.648;2023-07-02T12:51:04;13.88;;;5.95;;
19004;SDS011;9635;52.078;8.648;2023-07-02T12:56:07;10.88;;;5.28;;
19004;SDS011;9635;52.078;8.648;2023-07-02T13:01:11;7.03;;;4.00;;
19004;SDS011;9635;52.078;8.648;2023-07-02T13:06:14;12.00;;;5.68;;
19004;SDS011;9635;52.078;8.648;2023-07-02T13:11:17;10.80;;;4.47;;
19004;SDS011;9635;52.078;8.648;2023-07-02T13:16:21;11.55;;;4.72;;
19004;SDS011;9635;52.078;8.648;2023-07-02T13:21:25;11.43;;;4.63;;
19004;SDS011;9635;52.078;8.648;2023-07-02T13:26:28;8.57;;;4.35;;
19004;SDS011;9635;52.078;8.648;2023-07-02T13:31:32;8.10;;;4.40;;
19004;SDS011;9635;52.078;8.648;2023-07-02T13:36:35;9.02;;;4.53;;
19004;SDS011;9635;52.078;8.648;2023-07-02T13:41:38;8.73;;;4.55;;
19004;SDS011;9635;52.078;8.648;2023-07-02T13:46:43;10.98;;;5.88;;
19004;SDS011;9635;52.078;8.648;2023-07-02T13:51:47;9.48;;;4.28;;
19004;SDS011;9635;52.078;8.648;2023-07-02T13:56:51;11.05;;;4.72;;
19004;SDS011;9635;52.078;8.648;2023-07-02T14:01:55;13.85;;;4.65;;
19004;SDS011;9635;52.078;8.648;2023-07-02T14:06:58;9.52;;;5.00;;
19004;SDS011;9635;52.078;8.648;2023-07-02T14:12:01;10.80;;;5.15;;
19004;SDS011;9635;52.078;8.648;2023-07-02T14:17:06;8.18;;;4.93;;
19004;SDS011;9635;52.078;8.648;2023-07-02T14:22:09;7.60;;;4.10;;
19004;SDS011;9635;52.078;8.648;2023-07-02T14:27:12;12.68;;;4.22;;
19004;SDS011;9635;52.078;8.648;2023-07-02T14:32:16;13.27;;;5.65;;
19004;SDS011;9635;52.078;8.648;2023-07-02T14:37:19;10.43;;;4.63;;
19004;SDS011;9635;52.078;8.648;2023-07-02T14:42:22;12.18;;;5.25;;
19004;SDS011;9635;52.078;8.648;2023-07-02T14:47:26;9.23;;;4.53;;
19004;SDS011;9635;52.078;8.648;2023-07-02T14:52:29;12.85;;;4.50;;
19004;SDS011;9635;52.078;8.648;2023-07-02T14:57:32;12.52;;;5.05;;
19004;SDS011;9635;52.078;8.648;2023-07-02T15:02:36;9.85;;;4.20;;
19004;SDS011;9635;52.078;8.648;2023-07-02T15:07:39;13.27;;;5.13;;
19004;SDS011;9635;52.078;8.648;2023-07-02T15:12:42;11.55;;;5.53;;
19004;SDS011;9635;52.078;8.648;2023-07-02T15:17:46;10.65;;;4.97;;
19004;SDS011;9635;52.078;8.648;2023-07-02T15:22:49;10.85;;;4.57;;
19004;SDS011;9635;52.078;8.648;2023-07-02T15:27:52;12.23;;;5.13;;
19004;SDS011;9635;52.078;8.648;2023-07-02T15:32:56;11.73;;;5.22;;
19004;SDS011;9635;52.078;8.648;2023-07-02T15:37:59;14.25;;;5.13;;
19004;SDS011;9635;52.078;8.648;2023-07-02T15:43:02;9.85;;;4.20;;
19004;SDS011;9635;52.078;8.648;2023-07-02T15:48:06;12.98;;;5.60;;
19004;SDS011;9635;52.078;8.648;2023-07-02T15:53:10;14.27;;;5.07;;
19004;SDS011;9635;52.078;8.648;2023-07-02T15:58:13;13.70;;;5.30;;
19004;SDS011;9635;52.078;8.648;2023-07-02T16:03:17;11.45;;;5.03;;
19004;SDS011;9635;52.078;8.648;2023-07-02T16:08:24;10.00;;;4.10;;
19004;SDS011;9635;52.078;8.648;2023-07-02T16:13:27;7.63;;;3.88;;
19004;SDS011;9635;52.078;8.648;2023-07-02T16:18:32;5.07;;;3.05;;
19004;SDS011;9635;52.078;8.648;2023-07-02T16:23:34;17.52;;;4.95;;
19004;SDS011;9635;52.078;8.648;2023-07-02T16:28:38;12.95;;;4.40;;
19004;SDS011;9635;52.078;8.648;2023-07-02T16:33:42;9.73;;;4.72;;
19004;SDS011;9635;52.078;8.648;2023-07-02T16:38:45;5.07;;;3.20;;
19004;SDS011;9635;52.078;8.648;2023-07-02T16:43:49;10.02;;;4.60;;
19004;SDS011;9635;52.078;8.648;2023-07-02T16:48:54;9.23;;;3.70;;
19004;SDS011;9635;52.078;8.648;2023-07-02T16:53:57;9.25;;;4.78;;
19004;SDS011;9635;52.078;8.648;2023-07-02T16:58:59;6.32;;;3.83;;
19004;SDS011;9635;52.078;8.648;2023-07-02T17:04:05;9.02;;;4.07;;
19004;SDS011;9635;52.078;8.648;2023-07-02T17:09:18;10.70;;;3.85;;
19004;SDS011;9635;52.078;8.648;2023-07-02T17:14:23;7.70;;;3.78;;
19004;SDS011;9635;52.078;8.648;2023-07-02T17:19:30;7.07;;;4.00;;
19004;SDS011;9635;52.078;8.648;2023-07-02T17:24:37;8.48;;;3.72;;
19004;SDS011;9635;52.078;8.648;2023-07-02T17:29:41;9.73;;;3.92;;
19004;SDS011;9635;52.078;8.648;2023-07-02T17:34:46;11.48;;;4.30;;
19004;SDS011;9635;52.078;8.648;2023-07-02T17:39:49;6.05;;;3.47;;
19004;SDS011;9635;52.078;8.648;2023-07-02T17:44:52;8.07;;;4.05;;
19004;SDS011;9635;52.078;8.648;2023-07-02T17:50:00;7.35;;;3.67;;
19004;SDS011;9635;52.078;8.648;2023-07-02T17:55:05;7.90;;;3.38;;
19004;SDS011;9635;52.078;8.648;2023-07-02T18:00:09;8.73;;;3.90;;
19004;SDS011;9635;52.078;8.648;2023-07-02T18:05:14;7.72;;;3.60;;
19004;SDS011;9635;52.078;8.648;2023-07-02T18:10:17;9.02;;;3.85;;
19004;SDS011;9635;52.078;8.648;2023-07-02T18:15:20;8.60;;;3.80;;
19004;SDS011;9635;52.078;8.648;2023-07-02T18:20:24;8.25;;;4.28;;
19004;SDS011;9635;52.078;8.648;2023-07-02T18:25:30;10.18;;;4.07;;
19004;SDS011;9635;52.078;8.648;2023-07-02T18:30:33;8.18;;;3.33;;
19004;SDS011;9635;52.078;8.648;2023-07-02T18:35:39;10.05;;;4.40;;
19004;SDS011;9635;52.078;8.648;2023-07-02T18:40:44;13.25;;;5.03;;
19004;SDS011;9635;52.078;8.648;2023-07-02T18:45:49;7.15;;;3.08;;
19004;SDS011;9635;52.078;8.648;2023-07-02T18:50:54;7.68;;;3.90;;
19004;SDS011;9635;52.078;8.648;2023-07-02T18:55:57;9.88;;;4.22;;
19004;SDS011;9635;52.078;8.648;2023-07-02T19:01:05;16.42;;;3.47;;
19004;SDS011;9635;52.078;8.648;2023-07-02T19:06:11;5.47;;;3.58;;
19004;SDS011;9635;52.078;8.648;2023-07-02T19:11:14;9.32;;;3.33;;
19004;SDS011;9635;52.078;8.648;2023-07-02T19:16:17;10.27;;;3.85;;
19004;SDS011;9635;52.078;8.648;2023-07-02T19:21:22;9.60;;;3.67;;
19004;SDS011;9635;52.078;8.648;2023-07-02T19:26:25;7.40;;;4.07;;
19004;SDS011;9635;52.078;8.648;2023-07-02T19:31:29;10.20;;;4.45;;
19004;SDS011;9635;52.078;8.648;2023-07-02T19:36:34;12.50;;;4.40;;
19004;SDS011;9635;52.078;8.648;2023-07-02T19:41:37;9.40;;;3.78;;
19004;SDS011;9635;52.078;8.648;2023-07-02T19:46:40;8.48;;;3.72;;
19004;SDS011;9635;52.078;8.648;2023-07-02T19:51:46;7.28;;;3.80;;
19004;SDS011;9635;52.078;8.648;2023-07-02T19:56:51;15.27;;;4.50;;
19004;SDS011;9635;52.078;8.648;2023-07-02T20:01:54;9.68;;;4.10;;
19004;SDS011;9635;52.078;8.648;2023-07-02T20:06:58;8.63;;;4.60;;
19004;SDS011;9635;52.078;8.648;2023-07-02T20:12:02;9.77;;;3.53;;
19004;SDS011;9635;52.078;8.648;2023-07-02T20:17:06;9.60;;;4.10;;
19004;SDS011;9635;52.078;8.648;2023-07-02T20:22:10;7.95;;;3.88;;
19004;SDS011;9635;52.078;8.648;2023-07-02T20:27:14;7.93;;;3.67;;
19004;SDS011;9635;52.078;8.648;2023-07-02T20:32:20;5.78;;;3.80;;
19004;SDS011;9635;52.078;8.648;2023-07-02T20:37:25;14.50;;;4.35;;
19004;SDS011;9635;52.078;8.648;2023-07-02T20:42:32;9.20;;;4.47;;
19004;SDS011;9635;52.078;8.648;2023-07-02T20:47:35;9.95;;;4.40;;
19004;SDS011;9635;52.078;8.648;2023-07-02T20:52:39;12.25;;;4.43;;
19004;SDS011;9635;52.078;8.648;2023-07-02T20:57:43;9.38;;;3.97;;
19004;SDS011;9635;52.078;8.648;2023-07-02T21:02:45;7.50;;;3.95;;
19004;SDS011;9635;52.078;8.648;2023-07-02T21:07:50;8.55;;;3.95;;
19004;SDS011;9635;52.078;8.648;2023-07-02T21:12:53;7.00;;;4.07;;
19004;SDS011;9635;52.078;8.648;2023-07-02T21:17:55;12.27;;;4.00;;
19004;SDS011;9635;52.078;8.648;2023-07-02T21:23:00;10.27;;;4.25;;
19004;SDS011;9635;52.078;8.648;2023-07-02T21:28:03;7.90;;;3.88;;
19004;SDS011;9635;52.078;8.648;2023-07-02T21:33:06;6.63;;;3.75;;
19004;SDS011;9635;52.078;8.648;2023-07-02T21:38:10;9.80;;;4.18;;
19004;SDS011;9635;52.078;8.648;2023-07-02T21:43:13;9.48;;;4.28;;
19004;SDS011;9635;52.078;8.648;2023-07-02T21:48:16;7.00;;;3.75;;
19004;SDS011;9635;52.078;8.648;2023-07-02T21:53:21;11.38;;;4.28;;
19004;SDS011;9635;52.078;8.648;2023-07-02T21:58:23;10.52;;;4.82;;
19004;SDS011;9635;52.078;8.648;2023-07-02T22:03:27;9.35;;;4.22;;
19004;SDS011;9635;52.078;8.648;2023-07-02T22:08:31;8.45;;;4.30;;
19004;SDS011;9635;52.078;8.648;2023-07-02T22:13:34;9.23;;;4.57;;
19004;SDS011;9635;52.078;8.648;2023-07-02T22:18:37;12.55;;;4.88;;
19004;SDS011;9635;52.078;8.648;2023-07-02T22:23:42;8.98;;;4.70;;
19004;SDS011;9635;52.078;8.648;2023-07-02T22:28:47;9.77;;;4.68;;
19004;SDS011;9635;52.078;8.648;2023-07-02T22:33:50;10.15;;;5.03;;
19004;SDS011;9635;52.078;8.648;2023-07-02T22:38:54;8.25;;;4.43;;
19004;SDS011;9635;52.078;8.648;2023-07-02T22:43:57;9.43;;;3.70;;
19004;SDS011;9635;52.078;8.648;2023-07-02T22:49:00;10.23;;;4.50;;
19004;SDS011;9635;52.078;8.648;2023-07-02T22:54:07;12.98;;;4.78;;
19004;SDS011;9635;52.078;8.648;2023-07-02T22:59:10;9.82;;;4.65;;
19004;SDS011;9635;52.078;8.648;2023-07-02T23:04:13;11.63;;;4.93;;
19004;SDS011;9635;52.078;8.648;2023-07-02T23:09:18;8.32;;;4.18;;
19004;SDS011;9635;52.078;8.648;2023-07-02T23:14:21;9.13;;;4.90;;
19004;SDS011;9635;52.078;8.648;2023-07-02T23:19:24;19.25;;;6.18;;
19004;SDS011;9635;52.078;8.648;2023-07-02T23:24:28;11.63;;;5.25;;
19004;SDS011;9635;52.078;8.648;2023-07-02T23:29:31;14.55;;;5.43;;
19004;SDS011;9635;52.078;8.648;2023-07-02T23:34:35;11.23;;;5.35;;
19004;SDS011;9635;52.078;8.648;2023-07-02T23:39:41;11.52;;;4.43;;
19004;SDS011;9635;52.078;8.648;2023-07-02T23:44:45;8.60;;;4.60;;
19004;SDS011;9635;52.078;8.648;2023-07-02T23:49:47;10.48;;;4.55;;
19004;SDS011;9635;52.078;8.648;2023-07-02T23:54:52;10.93;;;5.47;;
19004;SDS011;9635;52.078;8.648;2023-07-02T23:59:55;13.10;;;4.93;;
